Time;durP1;ratioP1;P1;durP2;ratioP2;P2;SDS_P1;SDS_P2;PMS_P1;PMS_P2;Temp;Humidity;BMP_temperature;BMP_pressure;BME280_temperature;BME280_humidity;BME280_pressure;Samples;Min_cycle;Max_cycle;Signal;HPM_P1;HPM_P2
2023/02/14 00:01:08;;;;;;;;;;;0.70;99.90;;;;;;5056817;28;20110;-78
2023/02/14 00:03:34;;;;;;;;;;;0.70;99.90;;;;;;5056329;28;19915;-78
2023/02/14 00:06:06;;;;;;;;;;;0.60;99.90;;;;;;5045734;28;19961;-76
2023/02/14 00:08:32;;;;;;;;;;;0.60;99.90;;;;;;5051769;28;19920;-78
2023/02/14 00:10:57;;;;;;;;;;;0.60;99.90;;;;;;5039747;28;19913;-78
2023/02/14 00:13:23;;;;;;;;;;;0.70;99.90;;;;;;5049589;28;20299;-78
2023/02/14 00:15:48;;;;;;;;;;;0.70;99.90;;;;;;5052275;28;19917;-77
2023/02/14 00:18:14;;;;;;;;;;;0.70;99.90;;;;;;5050292;28;19909;-79
2023/02/14 00:20:39;;;;;;;;;;;0.80;99.90;;;;;;5056400;28;19916;-78
2023/02/14 00:23:05;;;;;;;;;;;0.80;99.90;;;;;;5077496;28;20352;-77
2023/02/14 00:25:32;;;;;;;;;;;0.90;99.90;;;;;;5076786;28;19915;-79
2023/02/14 00:27:58;;;;;;;;;;;0.90;99.90;;;;;;5062058;28;19940;-77
2023/02/14 00:30:23;;;;;;;;;;;0.90;99.90;;;;;;5062377;28;19916;-77
2023/02/14 00:32:49;;;;;;;;;;;0.90;99.90;;;;;;5062818;28;19913;-77
2023/02/14 00:35:14;;;;;;;;;;;0.80;99.90;;;;;;5065135;28;20118;-77
2023/02/14 00:37:40;;;;;;;;;;;0.80;99.90;;;;;;5055871;28;20330;-79
2023/02/14 00:40:06;;;;;;;;;;;0.80;99.90;;;;;;5056225;28;19913;-78
2023/02/14 00:42:31;;;;;;;;;;;0.80;99.90;;;;;;5056029;28;20395;-78
2023/02/14 00:44:57;;;;;;;;;;;0.80;99.90;;;;;;5035053;28;19915;-77
2023/02/14 00:47:22;;;;;;;;;;;0.80;99.90;;;;;;5051964;28;19913;-79
2023/02/14 00:49:48;;;;;;;;;;;0.80;99.90;;;;;;5055289;28;19909;-78
2023/02/14 00:52:13;;;;;;;;;;;0.80;99.90;;;;;;5056373;28;19975;-77
2023/02/14 00:54:39;;;;;;;;;;;0.80;99.90;;;;;;5055181;28;20004;-78
2023/02/14 00:57:04;;;;;;;;;;;0.90;99.90;;;;;;5055353;28;19927;-79
2023/02/14 00:59:30;;;;;;;;;;;0.90;99.90;;;;;;5056053;28;20268;-78
2023/02/14 01:01:55;;;;;;;;;;;0.90;99.90;;;;;;5057127;28;19913;-78
2023/02/14 01:04:21;;;;;;;;;;;0.80;99.90;;;;;;5053849;28;19916;-77
2023/02/14 01:06:46;;;;;;;;;;;0.70;99.90;;;;;;5055641;28;19920;-77
2023/02/14 01:09:12;;;;;;;;;;;0.70;99.90;;;;;;5054052;28;19920;-77
2023/02/14 01:11:38;;;;;;;;;;;0.70;99.90;;;;;;5054468;28;20280;-77
2023/02/14 01:14:03;;;;;;;;;;;0.70;99.90;;;;;;5034768;28;20000;-78
2023/02/14 01:16:29;;;;;;;;;;;0.70;99.90;;;;;;5052740;28;19978;-78
2023/02/14 01:18:57;;;;;;;;;;;0.60;99.90;;;;;;5016949;28;20092;-78
2023/02/14 01:21:24;;;;;;;;;;;0.70;99.90;;;;;;5033329;28;19949;-78
2023/02/14 01:23:51;;;;;;;;;;;0.70;99.90;;;;;;5033160;28;19924;-77
2023/02/14 01:26:16;;;;;;;;;;;0.70;99.90;;;;;;5017519;28;19936;-77
2023/02/14 01:28:43;;;;;;;;;;;0.70;99.90;;;;;;5041945;28;19912;-77
2023/02/14 01:31:11;;;;;;;;;;;0.70;99.90;;;;;;5053136;28;19953;-79
2023/02/14 01:33:37;;;;;;;;;;;0.70;99.90;;;;;;5053171;28;20417;-78
2023/02/14 01:36:03;;;;;;;;;;;0.70;99.90;;;;;;5055938;28;19928;-77
2023/02/14 01:38:29;;;;;;;;;;;0.70;99.90;;;;;;5060700;28;19917;-76
2023/02/14 01:40:54;;;;;;;;;;;0.70;99.90;;;;;;5061158;28;19912;-78
2023/02/14 01:43:20;;;;;;;;;;;0.70;99.90;;;;;;5064424;28;19916;-78
2023/02/14 01:45:45;;;;;;;;;;;0.60;99.90;;;;;;5063373;28;19939;-77
2023/02/14 01:48:11;;;;;;;;;;;0.50;99.90;;;;;;5049685;28;19909;-79
2023/02/14 01:50:38;;;;;;;;;;;0.40;99.90;;;;;;5036391;28;19910;-78
2023/02/14 01:53:09;;;;;;;;;;;0.40;99.90;;;;;;5018216;28;20027;-78
2023/02/14 01:55:37;;;;;;;;;;;0.40;99.90;;;;;;5033056;28;19921;-77
2023/02/14 01:58:14;;;;;;;;;;;0.50;99.90;;;;;;5050306;28;19921;-78
2023/02/14 02:00:55;;;;;;;;;;;0.40;99.90;;;;;;5055560;28;19999;-77
2023/02/14 02:03:26;;;;;;;;;;;0.50;99.90;;;;;;5058134;28;20375;-77
2023/02/14 02:05:54;;;;;;;;;;;0.50;99.90;;;;;;5063843;28;19980;-78
2023/02/14 02:08:20;;;;;;;;;;;0.60;99.90;;;;;;5066214;28;20252;-77
2023/02/14 02:10:45;;;;;;;;;;;0.60;99.90;;;;;;5047098;28;20000;-78
2023/02/14 02:13:16;;;;;;;;;;;0.60;99.90;;;;;;5040261;28;19920;-77
2023/02/14 02:15:47;;;;;;;;;;;0.60;99.90;;;;;;5059590;28;20007;-77
2023/02/14 02:18:16;;;;;;;;;;;0.50;99.90;;;;;;5051460;28;19971;-76
2023/02/14 02:20:44;;;;;;;;;;;0.40;99.90;;;;;;5053280;28;19927;-78
2023/02/14 02:23:10;;;;;;;;;;;0.20;99.90;;;;;;5058002;28;19948;-78
2023/02/14 02:25:54;;;;;;;;;;;0.20;99.90;;;;;;5055551;28;19954;-77
2023/02/14 02:28:38;;;;;;;;;;;0.30;99.90;;;;;;5056699;28;19909;-77
2023/02/14 02:31:06;;;;;;;;;;;0.30;99.90;;;;;;5057963;28;19913;-77
2023/02/14 02:33:34;;;;;;;;;;;0.40;99.90;;;;;;5067410;28;19976;-77
2023/02/14 02:36:09;;;;;;;;;;;0.40;99.90;;;;;;5044678;28;19923;-78
2023/02/14 02:38:47;;;;;;;;;;;0.40;99.90;;;;;;5048354;28;19912;-77
2023/02/14 02:41:18;;;;;;;;;;;0.40;99.90;;;;;;5056360;28;19920;-78
2023/02/14 02:43:50;;;;;;;;;;;0.40;99.90;;;;;;5062685;28;19909;-77
2023/02/14 02:49:07;;;;;;;;;;;0.20;99.90;;;;;;5056695;28;19916;-78
2023/02/14 02:54:26;;;;;;;;;;;0.10;99.90;;;;;;5054931;28;19939;-77
2023/02/14 02:56:54;;;;;;;;;;;0.10;99.90;;;;;;5055263;28;19943;-77
2023/02/14 02:59:28;;;;;;;;;;;0.10;99.90;;;;;;5055369;28;20286;-76
2023/02/14 03:01:56;;;;;;;;;;;0.20;99.90;;;;;;5052980;28;20313;-77
2023/02/14 03:09:56;;;;;;;;;;;0.10;99.90;;;;;;5035331;28;20421;-77
2023/02/14 03:12:34;;;;;;;;;;;0.10;99.90;;;;;;5036735;28;19980;-76
2023/02/14 03:15:08;;;;;;;;;;;0.10;99.90;;;;;;5043057;28;19913;-77
2023/02/14 03:17:34;;;;;;;;;;;0.10;99.90;;;;;;5062639;28;19917;-78
2023/02/14 03:20:15;;;;;;;;;;;0.20;99.90;;;;;;5060189;28;19980;-77
2023/02/14 03:22:56;;;;;;;;;;;0.20;99.90;;;;;;5046615;28;20020;-77
2023/02/14 03:25:37;;;;;;;;;;;0.30;99.90;;;;;;5034988;28;20291;-76
2023/02/14 03:28:11;;;;;;;;;;;0.30;99.90;;;;;;5062708;28;19962;-77
2023/02/14 03:30:44;;;;;;;;;;;0.30;99.90;;;;;;5068567;28;19967;-77
2023/02/14 03:33:09;;;;;;;;;;;0.20;99.90;;;;;;5055578;28;20011;-77
2023/02/14 03:35:40;;;;;;;;;;;0.20;99.90;;;;;;5055103;28;19959;-78
2023/02/14 03:38:05;;;;;;;;;;;0.20;99.90;;;;;;5037565;28;19923;-77
2023/02/14 03:40:33;;;;;;;;;;;0.20;99.90;;;;;;5064811;28;19909;-78
2023/02/14 03:43:10;;;;;;;;;;;0.10;99.90;;;;;;5072155;28;19909;-77
2023/02/14 03:45:39;;;;;;;;;;;0.00;99.90;;;;;;5069585;28;19913;-78
2023/02/14 03:48:07;;;;;;;;;;;0.00;99.90;;;;;;5060795;28;19917;-76
2023/02/14 03:50:33;;;;;;;;;;;0.00;99.90;;;;;;5059799;28;20004;-76
2023/02/14 03:53:00;;;;;;;;;;;-0.10;99.90;;;;;;5063743;28;19920;-77
2023/02/14 03:55:44;;;;;;;;;;;-0.20;99.90;;;;;;5053803;28;19916;-77
2023/02/14 03:58:15;;;;;;;;;;;-0.20;99.90;;;;;;5052012;28;19917;-76
2023/02/14 04:00:41;;;;;;;;;;;-0.30;99.90;;;;;;5051327;28;19970;-78
2023/02/14 04:03:10;;;;;;;;;;;-0.40;99.90;;;;;;5055830;28;19909;-78
2023/02/14 04:05:37;;;;;;;;;;;-0.30;99.90;;;;;;5055045;28;19924;-77
2023/02/14 04:08:02;;;;;;;;;;;-0.30;99.90;;;;;;5055959;28;20087;-78
2023/02/14 04:10:28;;;;;;;;;;;-0.30;99.90;;;;;;5058836;28;20300;-79
2023/02/14 04:12:53;;;;;;;;;;;-0.30;99.90;;;;;;5073223;28;19924;-78
2023/02/14 04:15:19;;;;;;;;;;;-0.30;99.90;;;;;;5074811;28;19940;-78
2023/02/14 04:20:29;;;;;;;;;;;-0.30;99.90;;;;;;5043957;28;20391;-78
2023/02/14 04:22:55;;;;;;;;;;;-0.20;99.90;;;;;;5047662;28;19909;-77
2023/02/14 04:25:20;;;;;;;;;;;-0.20;99.90;;;;;;5036845;28;19913;-78
2023/02/14 04:27:46;;;;;;;;;;;-0.10;99.90;;;;;;5051591;28;19908;-78
2023/02/14 04:30:12;;;;;;;;;;;-0.10;99.90;;;;;;5056743;28;19909;-77
2023/02/14 04:32:38;;;;;;;;;;;-0.10;99.90;;;;;;5056126;28;19909;-77
2023/02/14 04:35:04;;;;;;;;;;;-0.10;99.90;;;;;;5054769;28;19912;-77
2023/02/14 04:37:29;;;;;;;;;;;-0.20;99.90;;;;;;5054395;28;20422;-77
2023/02/14 04:39:55;;;;;;;;;;;-0.30;99.90;;;;;;5056182;28;19917;-78
2023/02/14 04:42:20;;;;;;;;;;;-0.30;99.90;;;;;;5054909;28;19913;-78
2023/02/14 04:44:46;;;;;;;;;;;-0.30;99.90;;;;;;5054478;28;19935;-77
2023/02/14 04:47:11;;;;;;;;;;;-0.10;99.90;;;;;;5037111;28;19908;-77
2023/02/14 04:49:37;;;;;;;;;;;0.00;99.90;;;;;;5054903;28;20232;-77
2023/02/14 04:52:02;;;;;;;;;;;0.10;99.90;;;;;;5054910;28;20331;-77
2023/02/14 04:54:28;;;;;;;;;;;0.30;99.90;;;;;;5053457;28;19913;-77
2023/02/14 04:56:53;;;;;;;;;;;0.30;99.90;;;;;;5053834;28;19924;-78
2023/02/14 04:59:19;;;;;;;;;;;0.20;99.90;;;;;;5047936;28;19909;-78
2023/02/14 05:01:45;;;;;;;;;;;0.20;99.90;;;;;;5053489;28;19917;-77
2023/02/14 05:04:10;;;;;;;;;;;0.10;99.90;;;;;;5053019;28;19909;-77
2023/02/14 05:06:36;;;;;;;;;;;0.10;99.90;;;;;;5042235;28;19929;-77
2023/02/14 05:09:01;;;;;;;;;;;0.10;99.90;;;;;;5041034;28;19909;-78
2023/02/14 05:11:27;;;;;;;;;;;0.00;99.90;;;;;;5033918;28;20047;-78
2023/02/14 05:13:53;;;;;;;;;;;0.00;99.90;;;;;;5020141;28;19916;-78
2023/02/14 05:16:19;;;;;;;;;;;0.00;99.90;;;;;;5052989;28;19917;-77
2023/02/14 05:18:44;;;;;;;;;;;0.00;99.90;;;;;;5053535;28;19917;-77
2023/02/14 05:21:10;;;;;;;;;;;0.10;99.90;;;;;;5049109;28;19913;-78
2023/02/14 05:23:36;;;;;;;;;;;0.10;99.90;;;;;;5035665;28;19928;-79
2023/02/14 05:26:01;;;;;;;;;;;0.10;99.90;;;;;;5035342;28;19920;-81
2023/02/14 05:28:27;;;;;;;;;;;0.00;99.90;;;;;;5055186;28;19908;-79
2023/02/14 05:30:52;;;;;;;;;;;0.00;99.90;;;;;;5057441;28;20323;-81
2023/02/14 05:33:18;;;;;;;;;;;0.00;99.90;;;;;;5056173;28;19912;-79
2023/02/14 05:35:44;;;;;;;;;;;0.00;99.90;;;;;;5059424;28;19916;-79
2023/02/14 05:38:09;;;;;;;;;;;0.00;99.90;;;;;;5055613;28;19917;-80
2023/02/14 05:40:35;;;;;;;;;;;-0.10;99.90;;;;;;5058540;28;19936;-80
2023/02/14 05:43:00;;;;;;;;;;;-0.10;99.90;;;;;;5057670;28;19916;-79
2023/02/14 05:45:26;;;;;;;;;;;-0.10;99.90;;;;;;5058209;28;19955;-80
2023/02/14 05:47:51;;;;;;;;;;;-0.10;99.90;;;;;;5057511;28;20410;-80
2023/02/14 05:50:17;;;;;;;;;;;0.00;99.90;;;;;;5059187;28;19956;-79
2023/02/14 05:52:43;;;;;;;;;;;0.00;99.90;;;;;;5059935;28;19916;-80
2023/02/14 05:55:09;;;;;;;;;;;0.00;99.90;;;;;;5057468;28;19917;-80
2023/02/14 05:57:35;;;;;;;;;;;0.00;99.90;;;;;;5059858;28;19920;-79
2023/02/14 06:00:00;;;;;;;;;;;0.00;99.90;;;;;;5049123;28;19909;-79
2023/02/14 06:02:26;;;;;;;;;;;0.00;99.90;;;;;;5066672;28;19920;-79
2023/02/14 06:04:51;;;;;;;;;;;0.00;99.90;;;;;;5066855;28;19909;-80
2023/02/14 06:07:17;;;;;;;;;;;0.00;99.90;;;;;;5073797;28;19909;-79
2023/02/14 06:09:42;;;;;;;;;;;0.10;99.90;;;;;;5058003;28;19913;-79
2023/02/14 06:12:08;;;;;;;;;;;0.00;99.90;;;;;;5059207;28;19913;-78
2023/02/14 06:14:33;;;;;;;;;;;0.10;99.90;;;;;;5059170;28;19976;-79
2023/02/14 06:16:59;;;;;;;;;;;0.10;99.90;;;;;;5058984;28;19920;-79
2023/02/14 06:19:24;;;;;;;;;;;0.00;99.90;;;;;;5059351;28;19962;-79
2023/02/14 06:21:50;;;;;;;;;;;-0.10;99.90;;;;;;5064590;28;19909;-79
2023/02/14 06:24:15;;;;;;;;;;;-0.20;99.90;;;;;;5064498;28;19982;-79
2023/02/14 06:26:41;;;;;;;;;;;-0.20;99.90;;;;;;5061645;28;20249;-78
2023/02/14 06:29:06;;;;;;;;;;;-0.20;99.90;;;;;;5063346;28;19913;-79
2023/02/14 06:31:32;;;;;;;;;;;-0.10;99.90;;;;;;5065458;28;20420;-78
2023/02/14 06:33:57;;;;;;;;;;;0.00;99.90;;;;;;5062085;28;19920;-78
2023/02/14 06:36:23;;;;;;;;;;;0.10;99.90;;;;;;5051894;28;19971;-78
2023/02/14 06:38:48;;;;;;;;;;;0.10;99.90;;;;;;5063459;28;19963;-79
2023/02/14 06:41:15;;;;;;;;;;;0.10;99.90;;;;;;5059759;28;20003;-78
2023/02/14 06:43:42;;;;;;;;;;;0.10;99.90;;;;;;5064003;28;19944;-80
2023/02/14 06:46:08;;;;;;;;;;;0.10;99.90;;;;;;5060272;28;20003;-79
2023/02/14 06:48:34;;;;;;;;;;;0.20;99.90;;;;;;5047593;28;19909;-80
2023/02/14 06:50:59;;;;;;;;;;;0.30;99.90;;;;;;5044044;28;19919;-80
2023/02/14 06:53:25;;;;;;;;;;;0.20;99.90;;;;;;5060784;28;20298;-78
2023/02/14 06:55:51;;;;;;;;;;;0.30;99.90;;;;;;5060285;28;19912;-78
2023/02/14 06:58:16;;;;;;;;;;;0.30;99.90;;;;;;5054925;28;19913;-79
2023/02/14 07:00:45;;;;;;;;;;;0.20;99.90;;;;;;5063968;28;19909;-78
2023/02/14 07:03:11;;;;;;;;;;;0.20;99.90;;;;;;5076088;28;19976;-78
2023/02/14 07:05:36;;;;;;;;;;;0.20;99.90;;;;;;5061253;28;19963;-78
2023/02/14 07:08:06;;;;;;;;;;;0.20;99.90;;;;;;5075680;28;19944;-79
2023/02/14 07:10:35;;;;;;;;;;;0.30;99.90;;;;;;5059206;28;19932;-79
2023/02/14 07:13:00;;;;;;;;;;;0.30;99.90;;;;;;5061414;28;19916;-79
2023/02/14 07:15:26;;;;;;;;;;;0.40;99.90;;;;;;5061948;28;20336;-78
2023/02/14 07:17:52;;;;;;;;;;;0.40;99.90;;;;;;5061682;28;20022;-78
2023/02/14 07:20:17;;;;;;;;;;;0.50;99.90;;;;;;5063523;28;19998;-78
2023/02/14 07:22:43;;;;;;;;;;;0.50;99.90;;;;;;5064980;28;19913;-79
2023/02/14 07:25:09;;;;;;;;;;;0.50;99.90;;;;;;5067186;28;19935;-79
2023/02/14 07:27:35;;;;;;;;;;;0.50;99.90;;;;;;5047929;28;19909;-79
2023/02/14 07:30:01;;;;;;;;;;;0.50;99.90;;;;;;5064661;28;19936;-81
2023/02/14 07:32:26;;;;;;;;;;;0.60;99.90;;;;;;5061004;28;19909;-81
2023/02/14 07:34:52;;;;;;;;;;;0.70;99.90;;;;;;5044868;28;20245;-79
2023/02/14 07:37:17;;;;;;;;;;;0.70;99.90;;;;;;5064157;28;19938;-80
2023/02/14 07:39:43;;;;;;;;;;;0.80;99.90;;;;;;5062999;28;19913;-79
2023/02/14 07:42:09;;;;;;;;;;;0.80;99.90;;;;;;5041323;28;19924;-79
2023/02/14 07:44:37;;;;;;;;;;;0.90;99.90;;;;;;5061748;28;19976;-79
2023/02/14 07:47:03;;;;;;;;;;;0.90;99.90;;;;;;5061262;28;19920;-79
2023/02/14 07:49:32;;;;;;;;;;;1.00;99.90;;;;;;5064460;28;19908;-79
2023/02/14 07:51:57;;;;;;;;;;;1.10;99.90;;;;;;5047458;28;19927;-80
2023/02/14 07:54:27;;;;;;;;;;;1.10;99.90;;;;;;5063864;28;19953;-79
2023/02/14 07:56:53;;;;;;;;;;;1.10;99.90;;;;;;5057603;28;20099;-79
2023/02/14 07:59:28;;;;;;;;;;;1.20;99.90;;;;;;5059453;28;19952;-79
2023/02/14 08:01:53;;;;;;;;;;;1.30;99.90;;;;;;5062595;28;20343;-79
2023/02/14 08:04:20;;;;;;;;;;;1.40;99.90;;;;;;5070349;28;19916;-78
2023/02/14 08:06:45;;;;;;;;;;;1.30;99.90;;;;;;5059299;28;20362;-79
2023/02/14 08:09:23;;;;;;;;;;;1.30;99.90;;;;;;5063769;28;19963;-80
2023/02/14 08:14:36;;;;;;;;;;;1.40;99.90;;;;;;5065477;28;19939;-79
2023/02/14 08:17:01;;;;;;;;;;;1.40;99.90;;;;;;5062002;28;19909;-79
2023/02/14 08:19:27;;;;;;;;;;;1.40;99.90;;;;;;5044723;28;19908;-79
2023/02/14 08:21:53;;;;;;;;;;;1.50;99.90;;;;;;5061664;28;20414;-78
2023/02/14 08:24:18;;;;;;;;;;;1.40;99.90;;;;;;5058492;28;20011;-79
2023/02/14 08:26:44;;;;;;;;;;;1.40;99.90;;;;;;5060769;28;19909;-81
2023/02/14 08:29:09;;;;;;;;;;;1.40;99.90;;;;;;5066877;28;19912;-78
2023/02/14 08:31:36;;;;;;;;;;;1.50;99.90;;;;;;5062420;28;19913;-79
2023/02/14 08:34:02;;;;;;;;;;;1.60;99.90;;;;;;5062724;28;19951;-80
2023/02/14 08:36:28;;;;;;;;;;;1.60;99.90;;;;;;5068039;28;19917;-80
2023/02/14 08:38:54;;;;;;;;;;;1.70;99.90;;;;;;5061755;28;19943;-80
2023/02/14 08:41:37;;;;;;;;;;;1.80;99.90;;;;;;5033311;28;19913;-80
2023/02/14 08:44:04;;;;;;;;;;;2.00;99.90;;;;;;5052113;28;19913;-82
2023/02/14 08:46:30;;;;;;;;;;;2.20;99.90;;;;;;5052885;28;19963;-81
2023/02/14 08:48:58;;;;;;;;;;;2.40;99.90;;;;;;5051271;28;20361;-81
2023/02/14 08:51:24;;;;;;;;;;;2.70;99.90;;;;;;5051670;28;19980;-80
2023/02/14 08:53:50;;;;;;;;;;;2.90;99.90;;;;;;5049719;28;20015;-81
2023/02/14 08:56:16;;;;;;;;;;;3.00;99.90;;;;;;5053249;28;19952;-82
2023/02/14 08:58:42;;;;;;;;;;;3.10;99.70;;;;;;5060717;28;19963;-80
2023/02/14 09:01:12;;;;;;;;;;;3.20;99.10;;;;;;5071255;28;19909;-80
2023/02/14 09:03:38;;;;;;;;;;;3.40;99.20;;;;;;5072373;28;19968;-81
2023/02/14 09:06:04;;;;;;;;;;;3.60;98.50;;;;;;5073496;28;19931;-81
2023/02/14 09:08:30;;;;;;;;;;;3.50;97.50;;;;;;5072405;28;19964;-81
2023/02/14 09:10:56;;;;;;;;;;;3.30;97.40;;;;;;5071624;28;19919;-81
2023/02/14 09:13:22;;;;;;;;;;;3.30;97.50;;;;;;5072045;28;19916;-82
2023/02/14 09:15:47;;;;;;;;;;;3.30;97.40;;;;;;5069474;28;19900;-81
2023/02/14 09:18:13;;;;;;;;;;;3.40;97.40;;;;;;5070956;28;19919;-80
2023/02/14 09:20:38;;;;;;;;;;;3.40;97.10;;;;;;5052464;28;19976;-81
2023/02/14 09:23:04;;;;;;;;;;;3.40;96.50;;;;;;5035155;28;19909;-84
2023/02/14 09:25:29;;;;;;;;;;;3.40;96.50;;;;;;5050908;28;19924;-81
2023/02/14 09:27:55;;;;;;;;;;;3.40;96.50;;;;;;5059260;28;19913;-81
2023/02/14 09:30:20;;;;;;;;;;;3.30;96.50;;;;;;5066291;28;19940;-81
2023/02/14 09:32:46;;;;;;;;;;;3.30;96.80;;;;;;5071758;28;19968;-80
2023/02/14 09:35:18;;;;;;;;;;;3.30;96.70;;;;;;5072260;28;19924;-82
2023/02/14 09:37:49;;;;;;;;;;;3.30;96.50;;;;;;5071119;28;19962;-81
2023/02/14 09:40:16;;;;;;;;;;;3.10;96.60;;;;;;5074061;28;19913;-81
2023/02/14 09:43:03;;;;;;;;;;;3.20;96.90;;;;;;5072789;28;19935;-80
2023/02/14 09:45:42;;;;;;;;;;;3.00;96.90;;;;;;5055577;28;19908;-81
2023/02/14 09:48:35;;;;;;;;;;;3.10;97.60;;;;;;5074260;28;19920;-81
2023/02/14 09:51:22;;;;;;;;;;;3.50;97.60;;;;;;5071109;28;19950;-80
2023/02/14 09:53:53;;;;;;;;;;;4.10;97.40;;;;;;5057448;28;19905;-82
2023/02/14 09:56:18;;;;;;;;;;;4.90;96.00;;;;;;5075162;28;19931;-82
2023/02/14 09:59:06;;;;;;;;;;;5.60;95.00;;;;;;5074002;28;19908;-82
2023/02/14 10:01:56;;;;;;;;;;;6.10;93.70;;;;;;5068589;28;19962;-82
2023/02/14 10:04:41;;;;;;;;;;;6.10;91.60;;;;;;5072665;28;19939;-82
2023/02/14 10:07:13;;;;;;;;;;;5.70;91.70;;;;;;5054975;28;19968;-83
2023/02/14 10:09:58;;;;;;;;;;;5.50;91.90;;;;;;5073268;28;19968;-81
2023/02/14 10:12:37;;;;;;;;;;;5.40;92.50;;;;;;5072444;28;19948;-82
2023/02/14 10:15:25;;;;;;;;;;;5.30;92.20;;;;;;5054836;28;19901;-81
2023/02/14 10:18:11;;;;;;;;;;;5.30;92.40;;;;;;5054038;28;20000;-81
2023/02/14 10:20:41;;;;;;;;;;;5.00;92.80;;;;;;5070550;28;19912;-81
2023/02/14 10:23:23;;;;;;;;;;;4.90;93.30;;;;;;5075922;28;19919;-82
2023/02/14 10:26:08;;;;;;;;;;;4.80;93.70;;;;;;5058026;28;19901;-81
2023/02/14 10:28:36;;;;;;;;;;;4.80;94.10;;;;;;5071227;28;19909;-83
2023/02/14 10:31:31;;;;;;;;;;;4.80;94.00;;;;;;5055447;28;19897;-82
2023/02/14 10:33:59;;;;;;;;;;;4.80;94.20;;;;;;5053665;28;19949;-83
2023/02/14 10:36:31;;;;;;;;;;;4.90;94.50;;;;;;5053264;28;19921;-82
2023/02/14 10:39:35;;;;;;;;;;;4.90;94.50;;;;;;5052283;28;20315;-82
2023/02/14 10:42:24;;;;;;;;;;;5.00;94.30;;;;;;5033616;28;19937;-83
2023/02/14 10:45:05;;;;;;;;;;;5.20;94.60;;;;;;5007007;28;19921;-83
2023/02/14 10:47:49;;;;;;;;;;;5.20;93.80;;;;;;5063292;28;19923;-83
2023/02/14 10:50:20;;;;;;;;;;;5.10;93.90;;;;;;5072905;28;19908;-83
2023/02/14 10:52:50;;;;;;;;;;;5.10;94.40;;;;;;5056849;28;19912;-83
2023/02/14 10:55:16;;;;;;;;;;;5.20;94.30;;;;;;5075340;28;19917;-83
2023/02/14 10:57:43;;;;;;;;;;;5.30;94.00;;;;;;5073839;28;19918;-81
2023/02/14 11:00:19;;;;;;;;;;;5.30;94.00;;;;;;5070827;28;19992;-81
2023/02/14 11:02:46;;;;;;;;;;;5.20;94.40;;;;;;5072797;28;19935;-82
2023/02/14 11:05:31;;;;;;;;;;;5.20;94.60;;;;;;5056179;28;19980;-83
2023/02/14 11:07:58;;;;;;;;;;;5.20;94.10;;;;;;5073379;28;19936;-81
2023/02/14 11:10:29;;;;;;;;;;;5.10;94.70;;;;;;5074646;28;19916;-82
2023/02/14 11:12:55;;;;;;;;;;;5.10;94.80;;;;;;5074947;28;19974;-84
2023/02/14 11:15:20;;;;;;;;;;;5.20;94.90;;;;;;5041775;28;19917;-83
2023/02/14 11:17:46;;;;;;;;;;;5.20;94.50;;;;;;5053699;28;19939;-83
2023/02/14 11:20:21;;;;;;;;;;;5.20;94.40;;;;;;5037365;28;19909;-81
2023/02/14 11:22:47;;;;;;;;;;;5.30;94.30;;;;;;5055091;28;19909;-82
2023/02/14 11:25:19;;;;;;;;;;;5.30;94.10;;;;;;5037334;28;19916;-82
2023/02/14 11:27:49;;;;;;;;;;;5.20;94.20;;;;;;5068732;28;19909;-82
2023/02/14 11:30:24;;;;;;;;;;;5.20;94.60;;;;;;5073920;28;19973;-83
2023/02/14 11:32:56;;;;;;;;;;;5.20;94.70;;;;;;5072194;28;19996;-82
2023/02/14 11:35:27;;;;;;;;;;;5.10;94.70;;;;;;5071565;28;19913;-82
2023/02/14 11:37:54;;;;;;;;;;;5.20;94.80;;;;;;5054561;28;19964;-81
2023/02/14 11:40:28;;;;;;;;;;;5.20;94.50;;;;;;5055257;28;20008;-81
2023/02/14 11:42:56;;;;;;;;;;;5.30;94.60;;;;;;5070772;28;19908;-81
2023/02/14 11:45:25;;;;;;;;;;;5.40;94.80;;;;;;5054844;28;19909;-83
2023/02/14 11:48:05;;;;;;;;;;;5.60;94.70;;;;;;5072347;28;19896;-82
2023/02/14 11:50:31;;;;;;;;;;;5.70;93.50;;;;;;5060078;28;20004;-80
2023/02/14 11:52:57;;;;;;;;;;;5.60;93.70;;;;;;5055430;28;19944;-81
2023/02/14 11:55:25;;;;;;;;;;;5.60;94.10;;;;;;5046846;28;19914;-82
2023/02/14 11:57:50;;;;;;;;;;;5.60;93.80;;;;;;5056617;28;20356;-82
2023/02/14 12:00:42;;;;;;;;;;;5.50;93.60;;;;;;5061645;28;19928;-83
2023/02/14 12:03:16;;;;;;;;;;;5.50;93.70;;;;;;5051444;28;19916;-83
2023/02/14 12:05:47;;;;;;;;;;;5.50;94.00;;;;;;5058950;28;19916;-82
2023/02/14 12:08:13;;;;;;;;;;;5.50;94.10;;;;;;5058392;28;20367;-82
2023/02/14 12:10:40;;;;;;;;;;;5.40;94.20;;;;;;5057853;28;19996;-82
2023/02/14 12:13:06;;;;;;;;;;;5.40;94.30;;;;;;5060148;28;19913;-82
2023/02/14 12:15:47;;;;;;;;;;;5.40;94.40;;;;;;5058786;28;19913;-82
2023/02/14 12:18:31;;;;;;;;;;;5.50;93.90;;;;;;5059453;28;19909;-84
2023/02/14 12:21:02;;;;;;;;;;;5.50;94.30;;;;;;5059169;28;19908;-81
2023/02/14 12:23:47;;;;;;;;;;;5.50;93.90;;;;;;5059296;28;19909;-81
2023/02/14 12:26:22;;;;;;;;;;;5.60;93.70;;;;;;5058410;28;19909;-82
2023/02/14 12:28:50;;;;;;;;;;;5.50;94.00;;;;;;5057821;28;19909;-82
2023/02/14 12:31:16;;;;;;;;;;;5.50;94.40;;;;;;5076529;28;19909;-81
2023/02/14 12:33:41;;;;;;;;;;;5.70;94.60;;;;;;5072769;28;19921;-82
2023/02/14 12:36:12;;;;;;;;;;;6.00;94.30;;;;;;5059449;28;19917;-81
2023/02/14 12:38:54;;;;;;;;;;;6.20;93.20;;;;;;5058728;28;20004;-82
2023/02/14 12:41:27;;;;;;;;;;;6.50;92.40;;;;;;5060188;28;20007;-83
2023/02/14 12:43:56;;;;;;;;;;;6.50;91.60;;;;;;5042859;28;19916;-82
2023/02/14 12:46:21;;;;;;;;;;;6.50;92.30;;;;;;5058817;28;19943;-82
2023/02/14 12:48:47;;;;;;;;;;;6.50;92.30;;;;;;5061987;28;20053;-81
2023/02/14 12:51:45;;;;;;;;;;;6.70;91.90;;;;;;5073090;28;19909;-81
2023/02/14 12:54:29;;;;;;;;;;;7.00;91.40;;;;;;5030626;28;19909;-82
2023/02/14 12:57:07;;;;;;;;;;;6.90;90.60;;;;;;5055699;28;19951;-82
2023/02/14 12:59:37;;;;;;;;;;;6.90;91.10;;;;;;5057180;28;20007;-83
2023/02/14 13:02:16;;;;;;;;;;;6.90;91.00;;;;;;5072077;28;20027;-82
2023/02/14 13:04:53;;;;;;;;;;;6.80;90.90;;;;;;5054984;28;19955;-82
2023/02/14 13:07:19;;;;;;;;;;;6.80;91.10;;;;;;5059318;28;19909;-83
2023/02/14 13:09:48;;;;;;;;;;;6.90;91.20;;;;;;5058416;28;19939;-83
2023/02/14 13:12:16;;;;;;;;;;;6.80;90.60;;;;;;5057957;28;19913;-83
2023/02/14 13:14:51;;;;;;;;;;;6.70;91.20;;;;;;5057544;28;20402;-83
2023/02/14 13:17:20;;;;;;;;;;;6.60;91.30;;;;;;5057715;28;19920;-82
2023/02/14 13:19:48;;;;;;;;;;;6.60;91.30;;;;;;5057142;28;19916;-82
2023/02/14 13:22:16;;;;;;;;;;;6.60;91.40;;;;;;5058845;28;20115;-82
2023/02/14 13:24:44;;;;;;;;;;;6.60;91.50;;;;;;5058523;28;19909;-82
2023/02/14 13:27:17;;;;;;;;;;;6.70;91.70;;;;;;5057323;28;20294;-83
2023/02/14 13:29:45;;;;;;;;;;;6.80;91.70;;;;;;5059041;28;20004;-83
2023/02/14 13:32:13;;;;;;;;;;;7.10;91.70;;;;;;5069560;28;19909;-82
2023/02/14 13:34:43;;;;;;;;;;;7.20;90.80;;;;;;5048546;28;19928;-83
2023/02/14 13:37:10;;;;;;;;;;;7.30;90.10;;;;;;5039279;28;19916;-84
2023/02/14 13:39:51;;;;;;;;;;;7.10;90.40;;;;;;5045697;28;19924;-84
2023/02/14 13:42:48;;;;;;;;;;;7.10;90.20;;;;;;5025255;28;20354;-83
2023/02/14 13:45:36;;;;;;;;;;;7.00;90.40;;;;;;5038944;28;19913;-82
2023/02/14 13:48:05;;;;;;;;;;;6.90;91.00;;;;;;5041430;28;19909;-84
2023/02/14 13:50:36;;;;;;;;;;;6.80;91.40;;;;;;5041018;28;19955;-82
2023/02/14 13:53:02;;;;;;;;;;;6.80;91.60;;;;;;5045387;28;19913;-84
2023/02/14 13:55:32;;;;;;;;;;;6.90;91.30;;;;;;5031319;28;19988;-82
2023/02/14 13:58:03;;;;;;;;;;;7.10;91.50;;;;;;5071088;28;19912;-82
2023/02/14 14:00:36;;;;;;;;;;;7.30;90.40;;;;;;5073781;28;19916;-83
2023/02/14 14:03:02;;;;;;;;;;;7.30;90.80;;;;;;5075671;28;19951;-81
2023/02/14 14:05:39;;;;;;;;;;;7.20;91.00;;;;;;5074093;28;19919;-83
2023/02/14 14:08:21;;;;;;;;;;;7.20;90.30;;;;;;5085580;28;19909;-82
2023/02/14 14:10:51;;;;;;;;;;;7.20;90.30;;;;;;5067563;28;19917;-82
2023/02/14 14:13:42;;;;;;;;;;;7.10;90.50;;;;;;5062595;28;19909;-82
2023/02/14 14:16:25;;;;;;;;;;;6.90;90.30;;;;;;5049815;28;19917;-83
2023/02/14 14:18:53;;;;;;;;;;;6.70;91.10;;;;;;5046749;28;19988;-83
2023/02/14 14:21:24;;;;;;;;;;;6.50;91.70;;;;;;5047078;28;19909;-83
2023/02/14 14:24:08;;;;;;;;;;;6.40;91.90;;;;;;5026374;28;19932;-83
2023/02/14 14:26:36;;;;;;;;;;;6.30;92.40;;;;;;5045726;28;19989;-84
2023/02/14 14:29:08;;;;;;;;;;;6.20;92.60;;;;;;5024338;28;20050;-84
2023/02/14 14:31:35;;;;;;;;;;;6.10;93.00;;;;;;5041786;28;19936;-84
2023/02/14 14:34:01;;;;;;;;;;;6.00;93.30;;;;;;5050305;28;19913;-83
2023/02/14 14:36:27;;;;;;;;;;;5.90;93.60;;;;;;5061786;28;19923;-81
2023/02/14 14:38:53;;;;;;;;;;;5.90;93.60;;;;;;5067925;28;19909;-83
2023/02/14 14:41:19;;;;;;;;;;;5.90;93.40;;;;;;5075037;28;20060;-82
2023/02/14 14:43:46;;;;;;;;;;;5.80;93.80;;;;;;5069110;28;19908;-81
2023/02/14 14:46:15;;;;;;;;;;;5.70;93.90;;;;;;5047718;28;19944;-81
2023/02/14 14:48:58;;;;;;;;;;;5.70;93.70;;;;;;5074177;28;19909;-82
2023/02/14 14:51:25;;;;;;;;;;;5.60;94.20;;;;;;5073938;28;19908;-83
2023/02/14 14:54:04;;;;;;;;;;;5.50;94.50;;;;;;5049829;28;20004;-83
2023/02/14 14:56:30;;;;;;;;;;;5.40;94.60;;;;;;5045759;28;19917;-83
2023/02/14 14:58:56;;;;;;;;;;;5.30;94.90;;;;;;5062442;28;19919;-83